Time;durP1;ratioP1;P1;durP2;ratioP2;P2;SDS_P1;SDS_P2;PMS_P1;PMS_P2;Temp;Humidity;BMP_temperature;BMP_pressure;BME280_temperature;BME280_humidity;BME280_pressure;Samples;Min_cycle;Max_cycle;Signal;HPM_P1;HPM_P2
2023/05/18 00:01:22;;;;;;;;;;;6.80;56.30;;;;;;4120738;28;20010;-84
2023/05/18 00:03:42;;;;;;;;;;;6.80;55.80;;;;;;4122980;28;19933;-84
2023/05/18 00:06:03;;;;;;;;;;;6.90;56.10;;;;;;4116652;28;20037;-84
2023/05/18 00:08:22;;;;;;;;;;;6.80;56.00;;;;;;4122103;28;20005;-84
2023/05/18 00:10:53;;;;;;;;;;;6.80;56.20;;;;;;4115344;28;19929;-84
2023/05/18 00:13:13;;;;;;;;;;;6.80;56.10;;;;;;4117992;28;20070;-84
2023/05/18 00:15:35;;;;;;;;;;;6.80;56.80;;;;;;4120320;28;20450;-84
2023/05/18 00:17:55;;;;;;;;;;;6.70;56.20;;;;;;4118255;28;19925;-84
2023/05/18 00:20:20;;;;;;;;;;;6.70;56.50;;;;;;4119442;28;19984;-84
2023/05/18 00:22:43;;;;;;;;;;;6.70;57.00;;;;;;4115942;23;20026;-83
2023/05/18 00:25:08;;;;;;;;;;;6.70;56.40;;;;;;4105173;28;19922;-83
2023/05/18 00:27:30;;;;;;;;;;;6.70;56.30;;;;;;4114401;28;19952;-85
2023/05/18 00:29:50;;;;;;;;;;;6.70;56.40;;;;;;4119288;28;20296;-83
2023/05/18 00:32:09;;;;;;;;;;;6.70;56.40;;;;;;4109470;28;21690;-84
2023/05/18 00:34:28;;;;;;;;;;;6.70;56.50;;;;;;4104799;28;19970;-84
2023/05/18 00:36:47;;;;;;;;;;;6.70;56.50;;;;;;4087388;28;20059;-83
2023/05/18 00:39:10;;;;;;;;;;;6.80;56.50;;;;;;4103209;28;19986;-83
2023/05/18 00:41:37;;;;;;;;;;;6.70;56.40;;;;;;4100480;28;20267;-84
2023/05/18 00:44:05;;;;;;;;;;;6.70;56.40;;;;;;4084358;29;19941;-84
2023/05/18 00:46:28;;;;;;;;;;;6.70;56.40;;;;;;4089144;28;20372;-83
2023/05/18 00:48:53;;;;;;;;;;;6.60;56.60;;;;;;4084481;29;20440;-83
2023/05/18 00:51:22;;;;;;;;;;;6.60;56.70;;;;;;4079578;28;20467;-84
2023/05/18 00:53:44;;;;;;;;;;;6.60;56.80;;;;;;4078682;28;20012;-83
2023/05/18 00:55:48;;;;;;;;;;;6.60;57.20;;;;;;4081297;29;19925;-83
2023/05/18 00:57:55;;;;;;;;;;;6.60;56.70;;;;;;4095619;28;19985;-85
2023/05/18 01:00:00;;;;;;;;;;;6.60;56.60;;;;;;4076357;29;19926;-83
2023/05/18 01:02:01;;;;;;;;;;;6.60;56.60;;;;;;4068015;29;19915;-84
2023/05/18 01:04:05;;;;;;;;;;;6.60;56.80;;;;;;4099932;28;19918;-84
2023/05/18 01:06:09;;;;;;;;;;;6.60;56.70;;;;;;4064845;29;19927;-83
2023/05/18 01:08:09;;;;;;;;;;;6.50;56.60;;;;;;4098207;28;19921;-83
2023/05/18 01:10:13;;;;;;;;;;;6.50;56.60;;;;;;4064716;29;19951;-83
2023/05/18 01:12:18;;;;;;;;;;;6.50;56.70;;;;;;4074985;29;19960;-84
2023/05/18 01:14:37;;;;;;;;;;;6.60;56.70;;;;;;4079863;29;20006;-84
2023/05/18 01:16:42;;;;;;;;;;;6.50;56.90;;;;;;4094986;28;19950;-84
2023/05/18 01:18:50;;;;;;;;;;;6.40;57.00;;;;;;4094033;28;19941;-83
2023/05/18 01:20:56;;;;;;;;;;;6.50;56.90;;;;;;4093956;28;19929;-83
2023/05/18 01:23:00;;;;;;;;;;;6.40;56.80;;;;;;4094086;28;19922;-84
2023/05/18 01:25:16;;;;;;;;;;;6.50;56.90;;;;;;4096757;28;19918;-84
2023/05/18 01:27:23;;;;;;;;;;;6.40;56.80;;;;;;4092838;28;19914;-85
2023/05/18 01:29:25;;;;;;;;;;;6.40;56.90;;;;;;4060447;29;19955;-84
2023/05/18 01:31:26;;;;;;;;;;;6.40;57.10;;;;;;4095560;28;21821;-83
2023/05/18 01:33:29;;;;;;;;;;;6.30;57.10;;;;;;4066237;29;19974;-84
2023/05/18 01:35:30;;;;;;;;;;;6.40;57.00;;;;;;4069022;29;20397;-84
2023/05/18 01:37:46;;;;;;;;;;;6.30;57.00;;;;;;4094095;28;19922;-84
2023/05/18 01:39:53;;;;;;;;;;;6.30;57.00;;;;;;4078690;29;19922;-84
2023/05/18 01:41:57;;;;;;;;;;;6.30;57.00;;;;;;4096759;28;19918;-84
2023/05/18 01:44:03;;;;;;;;;;;6.30;57.10;;;;;;4080533;29;19930;-84
2023/05/18 01:46:14;;;;;;;;;;;6.30;57.20;;;;;;4080498;29;19918;-84
2023/05/18 01:48:19;;;;;;;;;;;6.30;57.30;;;;;;4081989;29;19945;-83
2023/05/18 01:50:23;;;;;;;;;;;6.30;57.30;;;;;;4093214;28;20054;-84
2023/05/18 01:52:25;;;;;;;;;;;6.20;57.30;;;;;;4092383;28;19966;-84
2023/05/18 01:54:29;;;;;;;;;;;6.20;57.40;;;;;;4079180;29;19946;-84
2023/05/18 01:56:33;;;;;;;;;;;6.20;57.40;;;;;;4092192;28;19918;-84
2023/05/18 01:58:38;;;;;;;;;;;6.20;57.40;;;;;;4068592;29;19979;-83
2023/05/18 02:00:38;;;;;;;;;;;6.20;57.40;;;;;;4100500;28;19937;-83
2023/05/18 02:02:39;;;;;;;;;;;6.20;57.40;;;;;;4071504;29;19950;-82
2023/05/18 02:04:40;;;;;;;;;;;6.10;57.40;;;;;;4079003;29;19915;-83
2023/05/18 02:06:41;;;;;;;;;;;6.10;57.40;;;;;;4082012;29;20337;-83
2023/05/18 02:08:44;;;;;;;;;;;6.20;57.40;;;;;;4082569;29;19958;-84
2023/05/18 02:10:47;;;;;;;;;;;6.10;57.10;;;;;;4083227;29;19926;-84
2023/05/18 02:12:51;;;;;;;;;;;6.10;57.40;;;;;;4095299;28;19929;-83
2023/05/18 02:14:54;;;;;;;;;;;6.10;57.40;;;;;;4094892;28;19922;-84
2023/05/18 02:16:56;;;;;;;;;;;6.10;57.50;;;;;;4076940;29;19957;-84
2023/05/18 02:18:56;;;;;;;;;;;6.10;57.50;;;;;;4074843;29;20529;-83
2023/05/18 02:20:59;;;;;;;;;;;5.90;57.40;;;;;;4064889;29;20010;-83
2023/05/18 02:23:00;;;;;;;;;;;6.00;57.40;;;;;;4078950;29;19986;-84
2023/05/18 02:25:02;;;;;;;;;;;5.90;57.40;;;;;;4071039;29;19930;-84
2023/05/18 02:27:04;;;;;;;;;;;5.90;57.30;;;;;;4097857;28;19922;-83
2023/05/18 02:29:10;;;;;;;;;;;5.90;57.40;;;;;;4068801;29;19923;-83
2023/05/18 02:31:11;;;;;;;;;;;5.90;57.50;;;;;;4069229;29;19912;-84
2023/05/18 02:33:24;;;;;;;;;;;5.80;57.40;;;;;;4085634;29;19923;-83
2023/05/18 02:35:31;;;;;;;;;;;5.90;57.40;;;;;;4069984;29;19994;-83
2023/05/18 02:37:38;;;;;;;;;;;5.90;57.50;;;;;;4084659;29;20018;-83
2023/05/18 02:39:41;;;;;;;;;;;5.80;57.50;;;;;;4071346;29;19925;-83
2023/05/18 02:41:42;;;;;;;;;;;5.80;57.50;;;;;;4089133;29;19963;-84
2023/05/18 02:43:43;;;;;;;;;;;5.70;57.50;;;;;;4099526;28;20581;-83
2023/05/18 02:45:43;;;;;;;;;;;5.80;57.70;;;;;;4072868;29;19923;-84
2023/05/18 02:47:44;;;;;;;;;;;5.80;57.60;;;;;;4089946;29;20357;-83
2023/05/18 02:49:45;;;;;;;;;;;5.70;57.60;;;;;;4104650;28;19915;-83
2023/05/18 02:51:45;;;;;;;;;;;5.60;57.60;;;;;;4072093;29;21257;-83
2023/05/18 02:53:49;;;;;;;;;;;5.60;57.60;;;;;;4102628;28;19978;-85
2023/05/18 02:56:06;;;;;;;;;;;5.60;57.60;;;;;;4101380;28;19922;-83
2023/05/18 02:58:08;;;;;;;;;;;5.60;57.60;;;;;;4071744;29;20079;-83
2023/05/18 03:00:24;;;;;;;;;;;5.50;57.60;;;;;;4087638;29;19919;-84
2023/05/18 03:02:28;;;;;;;;;;;5.50;57.70;;;;;;4103923;28;19910;-83
2023/05/18 03:04:37;;;;;;;;;;;5.50;57.80;;;;;;4087766;29;19917;-84
2023/05/18 03:06:40;;;;;;;;;;;5.50;58.10;;;;;;4070301;29;20040;-84
2023/05/18 03:08:41;;;;;;;;;;;5.40;58.60;;;;;;4089744;29;19922;-84
2023/05/18 03:10:50;;;;;;;;;;;5.40;58.00;;;;;;4092036;29;19919;-84
2023/05/18 03:12:53;;;;;;;;;;;5.40;58.50;;;;;;4094898;29;19917;-84
2023/05/18 03:14:55;;;;;;;;;;;5.50;58.50;;;;;;4089993;29;19914;-83
2023/05/18 03:17:04;;;;;;;;;;;5.40;58.60;;;;;;4081171;29;20023;-83
2023/05/18 03:19:05;;;;;;;;;;;5.30;58.50;;;;;;4096254;28;19946;-83
2023/05/18 03:21:06;;;;;;;;;;;5.40;58.50;;;;;;4068209;29;19916;-83
2023/05/18 03:23:17;;;;;;;;;;;5.30;58.30;;;;;;4095506;28;19926;-82
2023/05/18 03:25:19;;;;;;;;;;;5.40;58.30;;;;;;4065087;29;19972;-83
2023/05/18 03:27:24;;;;;;;;;;;5.30;58.40;;;;;;4100831;28;19918;-83
2023/05/18 03:29:25;;;;;;;;;;;5.30;58.70;;;;;;4068980;29;19927;-84
2023/05/18 03:31:28;;;;;;;;;;;5.40;58.50;;;;;;4079738;29;19990;-83
2023/05/18 03:33:29;;;;;;;;;;;5.40;58.60;;;;;;4083337;28;19921;-83
2023/05/18 03:35:35;;;;;;;;;;;5.30;58.60;;;;;;4089257;29;20125;-83
2023/05/18 03:37:36;;;;;;;;;;;5.30;58.60;;;;;;4072075;29;19911;-83
2023/05/18 03:39:40;;;;;;;;;;;5.40;58.70;;;;;;4101489;28;20036;-83
2023/05/18 03:41:43;;;;;;;;;;;5.40;58.80;;;;;;4098877;28;20375;-83
2023/05/18 03:43:53;;;;;;;;;;;5.40;58.90;;;;;;4080367;29;19908;-82
2023/05/18 03:45:56;;;;;;;;;;;5.40;58.80;;;;;;4110571;28;19918;-83
2023/05/18 03:48:02;;;;;;;;;;;5.40;58.90;;;;;;4097275;29;19923;-83
2023/05/18 03:50:06;;;;;;;;;;;5.50;59.10;;;;;;4083098;29;20223;-82
2023/05/18 03:52:10;;;;;;;;;;;5.50;59.10;;;;;;4095850;29;19931;-83
2023/05/18 03:54:14;;;;;;;;;;;5.50;59.10;;;;;;4098275;29;19986;-82
2023/05/18 03:56:17;;;;;;;;;;;5.50;59.20;;;;;;4094674;29;19903;-82
2023/05/18 03:58:19;;;;;;;;;;;5.50;59.30;;;;;;4094291;29;19923;-83
2023/05/18 04:00:22;;;;;;;;;;;5.50;59.40;;;;;;4111125;28;19902;-83
2023/05/18 04:02:23;;;;;;;;;;;5.60;59.40;;;;;;4096113;29;19915;-84
2023/05/18 04:04:26;;;;;;;;;;;5.60;59.40;;;;;;4097929;29;19907;-83
2023/05/18 04:06:29;;;;;;;;;;;5.70;59.50;;;;;;4092885;29;20041;-83
2023/05/18 04:08:35;;;;;;;;;;;5.70;59.70;;;;;;4082570;29;19973;-83
2023/05/18 04:10:36;;;;;;;;;;;5.70;59.70;;;;;;4112934;28;19919;-83
2023/05/18 04:12:37;;;;;;;;;;;5.70;59.70;;;;;;4095149;29;19929;-84
2023/05/18 04:14:41;;;;;;;;;;;5.80;59.80;;;;;;4111454;28;19929;-84
2023/05/18 04:16:42;;;;;;;;;;;5.70;59.70;;;;;;4095416;29;19919;-84
2023/05/18 04:18:48;;;;;;;;;;;5.70;59.70;;;;;;4094361;29;20029;-83
2023/05/18 04:20:49;;;;;;;;;;;5.90;59.70;;;;;;4095363;29;20012;-83
2023/05/18 04:22:52;;;;;;;;;;;5.90;59.80;;;;;;4094397;29;19926;-84
2023/05/18 04:24:53;;;;;;;;;;;5.90;59.80;;;;;;4095957;29;19922;-83
2023/05/18 04:26:54;;;;;;;;;;;6.00;59.90;;;;;;4078582;29;19911;-83
2023/05/18 04:28:59;;;;;;;;;;;6.00;60.10;;;;;;4096536;29;20421;-83
2023/05/18 04:31:00;;;;;;;;;;;6.10;60.10;;;;;;4096960;29;19943;-83
2023/05/18 04:33:05;;;;;;;;;;;6.10;60.60;;;;;;4096784;29;19907;-83
2023/05/18 04:35:06;;;;;;;;;;;6.20;60.40;;;;;;4095915;29;19907;-83
2023/05/18 04:37:09;;;;;;;;;;;6.20;60.90;;;;;;4111869;28;20067;-83
2023/05/18 04:39:11;;;;;;;;;;;6.20;61.10;;;;;;4095225;29;19922;-83
2023/05/18 04:41:19;;;;;;;;;;;6.30;61.00;;;;;;4096375;28;20023;-83
2023/05/18 04:43:22;;;;;;;;;;;6.40;61.10;;;;;;4092543;29;19911;-84
2023/05/18 04:45:24;;;;;;;;;;;6.50;61.70;;;;;;4082541;28;19922;-83
2023/05/18 04:47:26;;;;;;;;;;;6.50;61.60;;;;;;4111530;28;19921;-84
2023/05/18 04:49:27;;;;;;;;;;;6.50;61.10;;;;;;4087894;29;19931;-85
2023/05/18 04:51:33;;;;;;;;;;;6.60;61.00;;;;;;4103859;28;20280;-83
2023/05/18 04:53:39;;;;;;;;;;;6.60;60.70;;;;;;4105740;28;20004;-84
2023/05/18 04:55:42;;;;;;;;;;;6.70;60.90;;;;;;4075120;29;19951;-83
2023/05/18 04:57:55;;;;;;;;;;;6.80;60.90;;;;;;4102015;28;20461;-84
2023/05/18 04:59:57;;;;;;;;;;;6.90;61.00;;;;;;4106670;28;19969;-84
2023/05/18 05:02:01;;;;;;;;;;;6.80;62.10;;;;;;4089273;29;19969;-84
2023/05/18 05:04:08;;;;;;;;;;;6.90;61.60;;;;;;4106204;28;19964;-84
2023/05/18 05:06:16;;;;;;;;;;;7.10;61.30;;;;;;4089299;29;19918;-84
2023/05/18 05:08:17;;;;;;;;;;;7.10;61.10;;;;;;4100624;28;20003;-84
2023/05/18 05:10:43;;;;;;;;;;;7.10;61.30;;;;;;4101219;28;19974;-84
2023/05/18 05:13:11;;;;;;;;;;;7.20;61.40;;;;;;4100941;28;19970;-83
2023/05/18 05:15:35;;;;;;;;;;;7.30;62.50;;;;;;4098750;28;19930;-84
2023/05/18 05:17:59;;;;;;;;;;;7.40;62.30;;;;;;4092379;29;19919;-83
2023/05/18 05:20:23;;;;;;;;;;;7.40;60.70;;;;;;4085884;28;19916;-84
2023/05/18 05:22:46;;;;;;;;;;;7.60;61.10;;;;;;4098437;28;19922;-84
2023/05/18 05:25:07;;;;;;;;;;;7.60;61.30;;;;;;4085432;28;19915;-84
2023/05/18 05:27:28;;;;;;;;;;;7.70;61.40;;;;;;4103762;28;20481;-83
2023/05/18 05:29:49;;;;;;;;;;;7.80;60.60;;;;;;4102954;28;19934;-84
2023/05/18 05:32:11;;;;;;;;;;;7.90;60.90;;;;;;4104134;28;19966;-83
2023/05/18 05:34:42;;;;;;;;;;;7.90;60.40;;;;;;4093487;29;19985;-84
2023/05/18 05:37:03;;;;;;;;;;;8.00;59.80;;;;;;4103310;28;19919;-83
2023/05/18 05:39:26;;;;;;;;;;;8.00;59.50;;;;;;4102937;28;20464;-84
2023/05/18 05:41:47;;;;;;;;;;;8.20;60.30;;;;;;4093217;29;19922;-85
2023/05/18 05:44:19;;;;;;;;;;;8.10;60.10;;;;;;4105246;28;19919;-83
2023/05/18 05:46:43;;;;;;;;;;;8.20;59.40;;;;;;4100290;28;19919;-84
2023/05/18 05:48:46;;;;;;;;;;;8.30;60.10;;;;;;4083950;29;19922;-84
2023/05/18 05:50:46;;;;;;;;;;;8.30;60.60;;;;;;4106497;28;19918;-84
2023/05/18 05:52:50;;;;;;;;;;;8.40;59.80;;;;;;4084450;29;19919;-84
2023/05/18 05:54:50;;;;;;;;;;;8.40;59.50;;;;;;4099232;28;19938;-85
2023/05/18 05:56:51;;;;;;;;;;;8.40;59.70;;;;;;4084971;29;19923;-84
2023/05/18 05:58:52;;;;;;;;;;;8.50;59.90;;;;;;4067490;29;19923;-84
2023/05/18 06:00:52;;;;;;;;;;;8.50;59.50;;;;;;4102722;28;19990;-84
2023/05/18 06:02:59;;;;;;;;;;;8.60;58.50;;;;;;4083782;29;19996;-84
2023/05/18 06:05:03;;;;;;;;;;;8.60;59.00;;;;;;4065119;29;19948;-84
2023/05/18 06:07:31;;;;;;;;;;;8.70;58.60;;;;;;4075583;29;20153;-84
2023/05/18 06:09:39;;;;;;;;;;;8.60;58.10;;;;;;4082226;29;20022;-84
2023/05/18 06:11:46;;;;;;;;;;;8.70;58.10;;;;;;4101482;28;19914;-84
2023/05/18 06:13:57;;;;;;;;;;;8.70;58.10;;;;;;4086374;29;19910;-84
2023/05/18 06:15:58;;;;;;;;;;;8.60;58.20;;;;;;4098427;28;19929;-84
2023/05/18 06:18:20;;;;;;;;;;;8.70;58.10;;;;;;4083070;29;20052;-85
2023/05/18 06:20:25;;;;;;;;;;;8.80;57.50;;;;;;4068728;29;19930;-84
2023/05/18 06:22:34;;;;;;;;;;;8.80;57.40;;;;;;4096710;28;20261;-84
2023/05/18 06:24:37;;;;;;;;;;;8.80;57.00;;;;;;4080156;29;19927;-84
2023/05/18 06:26:38;;;;;;;;;;;8.90;56.80;;;;;;4083087;29;19918;-84
2023/05/18 06:28:38;;;;;;;;;;;8.90;57.00;;;;;;4098168;28;19926;-84
2023/05/18 06:30:47;;;;;;;;;;;9.00;57.10;;;;;;4065498;29;19922;-84
2023/05/18 06:32:50;;;;;;;;;;;9.00;57.20;;;;;;4081312;29;19911;-85
2023/05/18 06:34:55;;;;;;;;;;;9.10;56.20;;;;;;4096405;28;20344;-84
2023/05/18 06:37:11;;;;;;;;;;;9.10;56.50;;;;;;4081314;29;19930;-84
2023/05/18 06:39:23;;;;;;;;;;;9.20;56.00;;;;;;4062733;29;19978;-84
2023/05/18 06:41:24;;;;;;;;;;;9.20;56.00;;;;;;4060013;28;19923;-83
2023/05/18 06:43:27;;;;;;;;;;;9.40;55.90;;;;;;4082592;29;20030;-83
2023/05/18 06:45:27;;;;;;;;;;;9.40;55.80;;;;;;4083853;29;19937;-83
2023/05/18 06:47:28;;;;;;;;;;;9.40;55.10;;;;;;4083704;29;19947;-84
2023/05/18 06:49:39;;;;;;;;;;;9.40;55.30;;;;;;4079243;29;20348;-83
2023/05/18 06:51:44;;;;;;;;;;;9.60;55.90;;;;;;4083308;29;20084;-82
2023/05/18 06:53:45;;;;;;;;;;;9.60;55.90;;;;;;4086037;29;19915;-83
2023/05/18 06:55:45;;;;;;;;;;;9.70;54.10;;;;;;4078349;29;19953;-83
2023/05/18 06:57:46;;;;;;;;;;;9.80;54.80;;;;;;4067159;29;19915;-83
2023/05/18 06:59:52;;;;;;;;;;;9.90;53.90;;;;;;4067433;29;19978;-83
2023/05/18 07:01:59;;;;;;;;;;;9.90;54.70;;;;;;4084541;29;19939;-83
2023/05/18 07:04:03;;;;;;;;;;;9.90;54.80;;;;;;4084401;29;19925;-83
2023/05/18 07:06:04;;;;;;;;;;;10.00;54.80;;;;;;4095361;28;19962;-84
2023/05/18 07:08:21;;;;;;;;;;;10.00;53.40;;;;;;4080233;28;20423;-83
2023/05/18 07:10:27;;;;;;;;;;;10.10;53.30;;;;;;4083035;28;19923;-83
2023/05/18 07:12:59;;;;;;;;;;;10.20;53.10;;;;;;4086016;29;20002;-84
2023/05/18 07:15:10;;;;;;;;;;;10.30;53.50;;;;;;4053210;29;19939;-85
2023/05/18 07:17:11;;;;;;;;;;;10.20;53.90;;;;;;4039984;29;19922;-84
2023/05/18 07:19:12;;;;;;;;;;;10.40;54.20;;;;;;4038064;29;20003;-85
2023/05/18 07:21:13;;;;;;;;;;;10.40;54.10;;;;;;4033635;29;19956;-84
2023/05/18 07:23:14;;;;;;;;;;;10.50;54.10;;;;;;4041207;29;20022;-84
2023/05/18 07:25:27;;;;;;;;;;;10.60;54.30;;;;;;4037138;29;19930;-85
2023/05/18 07:27:36;;;;;;;;;;;10.60;54.00;;;;;;4038654;29;19923;-86
2023/05/18 07:29:37;;;;;;;;;;;10.60;54.00;;;;;;4037013;29;19920;-84
2023/05/18 07:31:39;;;;;;;;;;;10.70;53.90;;;;;;4055625;29;19943;-85
2023/05/18 07:33:46;;;;;;;;;;;10.70;54.10;;;;;;4020752;29;20426;-85
2023/05/18 07:35:47;;;;;;;;;;;10.90;53.80;;;;;;4052528;29;19915;-85
2023/05/18 07:37:50;;;;;;;;;;;10.70;53.70;;;;;;4052541;29;19996;-86
2023/05/18 07:39:54;;;;;;;;;;;10.90;53.60;;;;;;4029130;29;19924;-84
2023/05/18 07:41:57;;;;;;;;;;;11.00;53.70;;;;;;4080975;23;20396;-85
2023/05/18 07:44:03;;;;;;;;;;;11.00;53.40;;;;;;4096091;28;20105;-84
2023/05/18 07:46:04;;;;;;;;;;;11.00;53.40;;;;;;4115274;28;19928;-84
2023/05/18 07:48:06;;;;;;;;;;;11.00;53.40;;;;;;4129583;28;20291;-84
2023/05/18 07:50:18;;;;;;;;;;;11.10;53.40;;;;;;4096920;28;19965;-84
2023/05/18 07:52:18;;;;;;;;;;;11.20;53.40;;;;;;4096557;28;19966;-85
2023/05/18 07:54:39;;;;;;;;;;;11.20;53.00;;;;;;4115761;28;19915;-85
2023/05/18 07:56:43;;;;;;;;;;;11.30;52.70;;;;;;4110971;28;19963;-85
2023/05/18 08:01:42;;;;;;;;;;;11.30;53.00;;;;;;4078565;29;20535;-85
2023/05/18 08:03:42;;;;;;;;;;;11.40;53.00;;;;;;4077152;29;19919;-83
2023/05/18 08:05:43;;;;;;;;;;;11.40;53.00;;;;;;4065807;29;19950;-85
2023/05/18 08:07:46;;;;;;;;;;;11.50;52.80;;;;;;4054343;29;19930;-86
2023/05/18 08:09:47;;;;;;;;;;;11.50;52.70;;;;;;4067519;29;19919;-86
2023/05/18 08:12:14;;;;;;;;;;;11.60;52.90;;;;;;4069749;23;19966;-86
2023/05/18 08:14:15;;;;;;;;;;;11.70;52.80;;;;;;4112341;28;20051;-84
2023/05/18 08:16:18;;;;;;;;;;;11.70;52.70;;;;;;4093466;28;19925;-85
2023/05/18 08:18:21;;;;;;;;;;;11.70;52.10;;;;;;4112465;28;19918;-85
2023/05/18 08:20:24;;;;;;;;;;;11.70;51.60;;;;;;4094586;28;19926;-84
2023/05/18 08:22:48;;;;;;;;;;;11.80;52.10;;;;;;4106905;28;19923;-86
2023/05/18 08:25:24;;;;;;;;;;;11.90;51.80;;;;;;4110161;28;19998;-87
2023/05/18 08:27:43;;;;;;;;;;;11.90;51.60;;;;;;4115263;28;19914;-84
2023/05/18 08:29:50;;;;;;;;;;;12.00;52.00;;;;;;4126139;28;20396;-85
2023/05/18 08:31:51;;;;;;;;;;;12.10;51.90;;;;;;4111224;28;20012;-85
2023/05/18 08:33:52;;;;;;;;;;;12.20;51.90;;;;;;4109790;28;20002;-86
2023/05/18 08:35:55;;;;;;;;;;;12.20;51.90;;;;;;4113008;28;19946;-85
2023/05/18 08:38:05;;;;;;;;;;;12.30;51.70;;;;;;4095015;28;19930;-87
2023/05/18 08:40:15;;;;;;;;;;;12.30;51.80;;;;;;4128327;28;20009;-85
2023/05/18 08:42:21;;;;;;;;;;;12.50;51.00;;;;;;4115410;28;19918;-85
2023/05/18 08:44:31;;;;;;;;;;;12.50;51.50;;;;;;4116983;28;20128;-86
2023/05/18 08:46:38;;;;;;;;;;;12.60;50.90;;;;;;4119866;28;19938;-85
2023/05/18 08:48:44;;;;;;;;;;;12.70;50.90;;;;;;4110678;28;20041;-85
2023/05/18 08:51:05;;;;;;;;;;;;;;;;;;;;;
2023/05/18 08:53:11;;;;;;;;;;;12.80;50.40;;;;;;4113100;28;19914;-85
2023/05/18 08:55:51;;;;;;;;;;;;;;;;;;;;;
2023/05/18 08:58:20;;;;;;;;;;;12.90;50.60;;;;;;4111581;28;19917;-84
2023/05/18 09:00:22;;;;;;;;;;;13.00;48.70;;;;;;4103743;28;19926;-86
2023/05/18 09:02:42;;;;;;;;;;;13.10;49.40;;;;;;4136164;23;20382;-85
2023/05/18 09:05:13;;;;;;;;;;;13.00;49.10;;;;;;4131679;28;19929;-84
2023/05/18 09:07:38;;;;;;;;;;;13.10;47.90;;;;;;4114688;28;20140;-84
2023/05/18 09:09:59;;;;;;;;;;;13.10;48.40;;;;;;4127788;28;19977;-85
2023/05/18 09:12:25;;;;;;;;;;;13.20;48.90;;;;;;4120068;28;19918;-81
2023/05/18 09:14:47;;;;;;;;;;;13.30;48.50;;;;;;4126342;28;20017;-84
2023/05/18 09:17:08;;;;;;;;;;;13.30;48.70;;;;;;4126023;28;19918;-83
2023/05/18 09:19:36;;;;;;;;;;;13.30;48.30;;;;;;4116814;28;19921;-83
2023/05/18 09:22:00;;;;;;;;;;;13.40;48.40;;;;;;4114990;28;19918;-82
2023/05/18 09:24:21;;;;;;;;;;;13.40;48.80;;;;;;4125547;28;19961;-84
2023/05/18 09:26:21;;;;;;;;;;;13.50;48.40;;;;;;4111250;28;19914;-83
2023/05/18 09:28:27;;;;;;;;;;;13.50;47.80;;;;;;4110749;28;19925;-83
2023/05/18 09:30:27;;;;;;;;;;;13.60;48.20;;;;;;4109387;28;20347;-83
2023/05/18 09:32:33;;;;;;;;;;;13.60;47.60;;;;;;4112750;28;19922;-83
2023/05/18 09:35:00;;;;;;;;;;;13.70;47.60;;;;;;4109666;28;19954;-82
2023/05/18 09:37:01;;;;;;;;;;;13.70;48.10;;;;;;4061881;29;20005;-83
2023/05/18 09:39:09;;;;;;;;;;;13.80;48.20;;;;;;4067086;29;20006;-82
2023/05/18 09:41:32;;;;;;;;;;;13.80;47.80;;;;;;4075823;29;19918;-82
2023/05/18 09:43:53;;;;;;;;;;;13.80;47.40;;;;;;4069136;29;20014;-84
2023/05/18 09:46:14;;;;;;;;;;;13.90;47.20;;;;;;4079089;29;19930;-83
2023/05/18 09:49:08;;;;;;;;;;;14.00;47.40;;;;;;4077837;29;19923;-84
2023/05/18 09:51:30;;;;;;;;;;;13.90;46.80;;;;;;4092239;23;20022;-84
2023/05/18 09:53:34;;;;;;;;;;;14.00;46.80;;;;;;4112414;28;19997;-84
2023/05/18 09:56:10;;;;;;;;;;;14.00;47.10;;;;;;4112100;28;19914;-83
2023/05/18 09:58:34;;;;;;;;;;;14.10;47.20;;;;;;4123869;28;19921;-85
2023/05/18 10:01:00;;;;;;;;;;;14.10;47.20;;;;;;4129544;28;19960;-85
2023/05/18 10:03:23;;;;;;;;;;;14.20;46.90;;;;;;4112076;28;19918;-85
2023/05/18 10:05:50;;;;;;;;;;;14.30;47.40;;;;;;4114102;28;19972;-84
2023/05/18 10:08:14;;;;;;;;;;;14.40;47.40;;;;;;4110663;28;20040;-85
2023/05/18 10:10:37;;;;;;;;;;;14.50;47.10;;;;;;4094548;28;19949;-84
2023/05/18 10:12:58;;;;;;;;;;;14.50;47.20;;;;;;4099508;28;19925;-85
2023/05/18 10:15:22;;;;;;;;;;;14.60;47.90;;;;;;4110420;28;19921;-85
2023/05/18 10:17:24;;;;;;;;;;;14.60;46.50;;;;;;4112273;28;20009;-85
2023/05/18 10:19:52;;;;;;;;;;;14.70;47.00;;;;;;4108820;28;19914;-85
2023/05/18 10:21:53;;;;;;;;;;;14.90;46.00;;;;;;4114137;23;19965;-89
2023/05/18 10:24:10;;;;;;;;;;;14.80;46.00;;;;;;4108129;28;20328;-87
2023/05/18 10:26:11;;;;;;;;;;;15.00;46.80;;;;;;4105630;28;20284;-87
2023/05/18 10:28:29;;;;;;;;;;;15.00;45.30;;;;;;4105591;28;19911;-87
2023/05/18 10:30:33;;;;;;;;;;;15.10;46.70;;;;;;4105153;28;20379;-87
2023/05/18 10:32:34;;;;;;;;;;;15.10;43.60;;;;;;4104966;28;20008;-87
2023/05/18 10:40:28;;;;;;;;;;;15.30;44.60;;;;;;4119120;28;20427;-88
2023/05/18 10:42:30;;;;;;;;;;;15.30;44.60;;;;;;4117513;23;19953;-84
2023/05/18 10:45:11;;;;;;;;;;;15.40;44.60;;;;;;4100945;28;19923;-84
2023/05/18 10:49:57;;;;;;;;;;;15.50;44.70;;;;;;4038121;29;19938;-85
2023/05/18 10:52:20;;;;;;;;;;;15.50;44.40;;;;;;4097153;28;19914;-85
2023/05/18 10:54:54;;;;;;;;;;;15.60;42.90;;;;;;4093520;28;19946;-85
2023/05/18 11:03:25;;;;;;;;;;;15.80;42.60;;;;;;4352046;23;19929;-84
2023/05/18 11:05:39;;;;;;;;;;;15.80;44.60;;;;;;4118567;28;19914;-85
2023/05/18 11:08:10;;;;;;;;;;;15.90;44.40;;;;;;4114026;28;20478;-85
2023/05/18 11:10:33;;;;;;;;;;;16.00;45.00;;;;;;4128163;28;19937;-84
2023/05/18 11:12:36;;;;;;;;;;;16.00;44.50;;;;;;4113365;28;19960;-85
2023/05/18 11:15:01;;;;;;;;;;;16.10;43.40;;;;;;4113780;28;19919;-84
2023/05/18 11:17:27;;;;;;;;;;;16.20;42.30;;;;;;4119320;28;19922;-84
2023/05/18 11:19:59;;;;;;;;;;;16.20;43.40;;;;;;4127107;28;19929;-85
2023/05/18 11:22:20;;;;;;;;;;;16.20;43.50;;;;;;4127822;28;19906;-85
2023/05/18 11:24:53;;;;;;;;;;;16.30;43.00;;;;;;4125929;28;19929;-84
2023/05/18 11:27:25;;;;;;;;;;;16.30;43.50;;;;;;4145201;28;19934;-85
2023/05/18 11:29:47;;;;;;;;;;;16.40;43.70;;;;;;4123552;28;19977;-85
2023/05/18 11:32:28;;;;;;;;;;;16.40;43.00;;;;;;4123421;28;19914;-86
2023/05/18 11:43:37;;;;;;;;;;;16.60;40.90;;;;;;4023016;29;19924;-84
2023/05/18 11:46:29;;;;;;;;;;;16.60;41.90;;;;;;4050425;29;19966;-85
2023/05/18 11:48:50;;;;;;;;;;;16.60;41.30;;;;;;4053765;29;19929;-86
2023/05/18 11:51:13;;;;;;;;;;;16.60;41.60;;;;;;4042374;29;19968;-84
2023/05/18 11:53:34;;;;;;;;;;;16.60;42.50;;;;;;4039364;29;19916;-85
2023/05/18 11:55:58;;;;;;;;;;;16.70;42.20;;;;;;4037704;29;19923;-84
2023/05/18 11:57:59;;;;;;;;;;;16.70;41.60;;;;;;4049469;29;19923;-85
2023/05/18 12:02:48;;;;;;;;;;;16.70;40.60;;;;;;4048419;29;19967;-84
2023/05/18 12:04:53;;;;;;;;;;;16.70;39.70;;;;;;4053357;29;19916;-84
2023/05/18 12:07:35;;;;;;;;;;;16.70;40.30;;;;;;4051210;29;19955;-84
2023/05/18 12:09:59;;;;;;;;;;;16.60;40.90;;;;;;4025966;29;19959;-84
2023/05/18 12:12:20;;;;;;;;;;;16.60;40.50;;;;;;4021735;29;19923;-83
2023/05/18 12:14:59;;;;;;;;;;;16.60;41.00;;;;;;4027298;29;19927;-83
2023/05/18 12:17:23;;;;;;;;;;;16.50;41.10;;;;;;3988188;29;19960;-84
2023/05/18 12:19:44;;;;;;;;;;;16.50;41.10;;;;;;4043319;29;19921;-85
2023/05/18 12:22:05;;;;;;;;;;;16.40;40.50;;;;;;4086387;28;19962;-83
2023/05/18 12:24:35;;;;;;;;;;;16.40;41.70;;;;;;4087406;28;19915;-84
2023/05/18 12:27:16;;;;;;;;;;;16.40;42.20;;;;;;4087745;28;19930;-84
2023/05/18 12:29:40;;;;;;;;;;;16.40;42.40;;;;;;4033305;29;20067;-85
2023/05/18 12:32:04;;;;;;;;;;;16.40;42.50;;;;;;4034061;29;19927;-83
2023/05/18 12:34:28;;;;;;;;;;;16.40;41.60;;;;;;4031599;29;20003;-84
2023/05/18 12:36:54;;;;;;;;;;;16.40;41.20;;;;;;4030955;29;19961;-85
2023/05/18 12:39:18;;;;;;;;;;;16.40;41.70;;;;;;4016914;29;19916;-84
2023/05/18 12:44:31;;;;;;;;;;;16.30;42.40;;;;;;4022335;29;19920;-84
2023/05/18 12:46:52;;;;;;;;;;;16.40;42.50;;;;;;4048104;29;19920;-85
2023/05/18 12:49:13;;;;;;;;;;;16.30;41.60;;;;;;4064733;29;19982;-85
2023/05/18 12:51:52;;;;;;;;;;;16.40;42.20;;;;;;4063411;29;19951;-86
2023/05/18 12:57:41;;;;;;;;;;;16.50;42.20;;;;;;4000033;29;20019;-85
2023/05/18 13:00:09;;;;;;;;;;;16.50;42.50;;;;;;4005846;29;19969;-85
2023/05/18 13:02:56;;;;;;;;;;;16.40;42.40;;;;;;4004771;29;20110;-85
2023/05/18 13:05:07;;;;;;;;;;;16.50;42.60;;;;;;4007410;29;20442;-84
2023/05/18 13:07:40;;;;;;;;;;;16.50;41.60;;;;;;4031716;29;19916;-84
2023/05/18 13:09:44;;;;;;;;;;;16.50;42.50;;;;;;4047951;29;19926;-85
2023/05/18 13:12:11;;;;;;;;;;;16.40;42.30;;;;;;4049139;29;19915;-85
2023/05/18 13:17:07;;;;;;;;;;;16.50;42.00;;;;;;4034263;29;19928;-84
2023/05/18 13:19:08;;;;;;;;;;;16.40;41.00;;;;;;4032246;29;19920;-84
2023/05/18 13:21:10;;;;;;;;;;;16.40;41.60;;;;;;4038867;29;19922;-84
2023/05/18 13:23:12;;;;;;;;;;;16.50;42.00;;;;;;4038594;29;20014;-85
2023/05/18 13:28:19;;;;;;;;;;;16.40;41.40;;;;;;4027116;29;19919;-85
2023/05/18 13:30:21;;;;;;;;;;;16.50;42.00;;;;;;4017541;29;19916;-85
2023/05/18 13:32:22;;;;;;;;;;;16.50;42.30;;;;;;3998324;29;19924;-84
2023/05/18 13:34:22;;;;;;;;;;;16.50;42.90;;;;;;4046850;29;20018;-85